createdAt,value
2022-08-16T00:05:02.174Z,27.44
2022-08-16T00:10:08.627Z,26.20
2022-08-16T00:15:51.986Z,24.84
2022-08-16T00:20:53.654Z,25.91
2022-08-16T00:26:34.963Z,26.94
2022-08-16T00:31:20.131Z,27.47
2022-08-16T00:36:27.881Z,27.83
2022-08-16T00:41:32.421Z,27.57
2022-08-16T00:47:06.140Z,25.98
2022-08-16T00:52:30.327Z,24.81
2022-08-16T00:57:58.302Z,25.03
2022-08-16T01:03:03.595Z,26.68
2022-08-16T01:08:35.120Z,27.32
2022-08-16T01:13:35.578Z,26.51
2022-08-16T01:18:55.898Z,25.05
2022-08-16T01:24:52.291Z,25.06
2022-08-16T01:30:19.517Z,26.80
2022-08-16T01:35:30.647Z,27.01
2022-08-16T01:40:38.691Z,25.46
2022-08-16T01:45:43.491Z,24.37
2022-08-16T01:51:09.217Z,24.58
2022-08-16T01:56:24.494Z,26.34
2022-08-16T02:01:29.960Z,26.97
2022-08-16T02:06:37.893Z,25.83
2022-08-16T02:11:48.558Z,24.46
2022-08-16T02:16:59.472Z,24.55
2022-08-16T02:22:08.927Z,26.21
2022-08-16T02:27:26.742Z,26.97
2022-08-16T02:32:49.000Z,26.18
2022-08-16T02:37:56.181Z,24.65
2022-08-16T02:42:59.514Z,24.57
2022-08-16T02:48:29.503Z,26.07
2022-08-16T02:53:27.075Z,26.80
2022-08-16T02:58:33.889Z,27.25
2022-08-16T03:04:39.792Z,26.98
2022-08-16T03:09:01.285Z,25.19
2022-08-16T03:14:07.389Z,24.84
2022-08-16T03:19:11.090Z,26.28
2022-08-16T03:24:29.260Z,26.90
2022-08-16T03:29:34.012Z,27.21
2022-08-16T03:34:37.048Z,27.41
2022-08-16T03:39:42.928Z,27.60
2022-08-16T03:44:47.554Z,27.14
2022-08-16T03:49:52.539Z,25.38
2022-08-16T03:54:58.266Z,25.01
2022-08-16T04:00:20.613Z,26.46
2022-08-16T04:05:47.442Z,27.15
2022-08-16T04:10:53.050Z,27.57
2022-08-16T04:15:59.422Z,27.86
2022-08-16T04:21:04.634Z,26.62
2022-08-16T04:26:08.260Z,25.22
2022-08-16T04:31:20.621Z,25.30
2022-08-16T04:36:23.811Z,26.74
2022-08-16T04:41:32.897Z,27.45
2022-08-16T04:47:02.936Z,27.96
2022-08-16T04:52:05.878Z,27.87
2022-08-16T04:57:30.132Z,26.29
2022-08-16T05:02:41.503Z,26.03
2022-08-16T05:07:59.645Z,27.45
2022-08-16T05:13:04.861Z,28.05
2022-08-16T05:18:16.183Z,28.60
2022-08-16T05:23:21.154Z,28.94
2022-08-16T05:28:37.367Z,28.26
2022-08-16T05:33:42.096Z,27.78
2022-08-16T05:38:45.661Z,27.09
2022-08-16T05:43:49.477Z,26.45
2022-08-16T05:48:55.246Z,27.33
2022-08-16T05:53:59.884Z,28.65
2022-08-16T05:59:03.031Z,29.11
2022-08-16T06:04:12.888Z,27.91
2022-08-16T06:09:43.551Z,26.73
2022-08-16T06:14:47.524Z,26.93
2022-08-16T06:19:54.889Z,28.51
2022-08-16T06:24:59.027Z,29.36
2022-08-16T06:30:04.135Z,29.26
2022-08-16T06:35:09.673Z,27.82
2022-08-16T06:40:15.929Z,26.86
2022-08-16T06:45:19.734Z,27.12
2022-08-16T06:50:29.699Z,28.70
2022-08-16T06:55:34.852Z,29.47
2022-08-16T07:00:42.996Z,29.02
2022-08-16T07:05:46.829Z,27.74
2022-08-16T07:10:51.224Z,27.03
2022-08-16T07:15:54.526Z,27.40
2022-08-16T07:21:01.979Z,29.10
2022-08-16T07:26:11.425Z,29.35
2022-08-16T07:31:38.083Z,27.96
2022-08-16T07:36:41.526Z,27.12
2022-08-16T07:41:48.521Z,26.63
2022-08-16T07:46:55.462Z,27.14
2022-08-16T07:51:59.728Z,28.96
2022-08-16T07:57:02.870Z,29.20
2022-08-16T08:02:06.278Z,27.93
2022-08-16T08:07:16.263Z,27.10
2022-08-16T08:12:31.612Z,26.58
2022-08-16T08:17:43.026Z,27.18
2022-08-16T08:22:49.386Z,28.91
2022-08-16T08:27:57.464Z,28.22
2022-08-16T08:33:01.314Z,27.22
2022-08-16T08:38:08.664Z,26.70
2022-08-16T08:43:17.960Z,26.32
2022-08-16T08:48:33.329Z,26.98
2022-08-16T08:53:39.907Z,28.91
2022-08-16T08:58:53.689Z,29.12
2022-08-16T09:03:58.677Z,27.87
2022-08-16T09:09:03.648Z,27.17
2022-08-16T09:14:07.318Z,26.75
2022-08-16T09:19:10.298Z,26.38
2022-08-16T09:24:13.342Z,26.10
2022-08-16T09:29:44.863Z,26.84
2022-08-16T09:34:48.973Z,28.77
2022-08-16T09:39:52.471Z,29.07
2022-08-16T09:45:11.181Z,27.93
2022-08-16T09:50:22.660Z,27.21
2022-08-16T09:55:29.064Z,26.74
2022-08-16T10:00:44.506Z,26.38
2022-08-16T10:05:49.705Z,26.09
2022-08-16T10:11:11.994Z,26.79
2022-08-16T10:21:23.574Z,28.15
2022-08-16T10:27:17.071Z,26.99
2022-08-16T10:31:53.629Z,26.24
2022-08-16T10:37:02.521Z,26.70
2022-08-16T10:42:07.139Z,28.50
2022-08-16T10:47:12.010Z,29.30
2022-08-16T10:52:19.036Z,28.49
2022-08-16T10:57:24.603Z,27.24
2022-08-16T11:02:57.560Z,26.53
2022-08-16T11:07:53.531Z,26.98
2022-08-16T11:13:21.156Z,28.71
2022-08-16T11:18:48.604Z,29.55
2022-08-16T11:23:57.566Z,28.83
2022-08-16T11:29:17.540Z,27.43
2022-08-16T11:34:22.015Z,26.59
2022-08-16T11:39:25.099Z,26.05
2022-08-16T11:44:45.376Z,26.54
2022-08-16T11:49:51.775Z,28.51
2022-08-16T11:54:57.055Z,28.39
2022-08-16T12:00:33.855Z,27.17
2022-08-16T12:05:35.360Z,26.49
2022-08-16T12:10:43.114Z,26.11
2022-08-16T12:15:47.552Z,26.76
2022-08-16T12:20:51.928Z,28.67
2022-08-16T12:25:58.556Z,28.84
2022-08-16T12:31:02.936Z,27.59
2022-08-16T12:36:06.203Z,26.88
2022-08-16T12:41:24.450Z,26.43
2022-08-16T12:46:29.950Z,27.04
2022-08-16T12:51:59.046Z,28.89
2022-08-16T12:57:03.195Z,29.06
2022-08-16T13:02:06.711Z,27.73
2022-08-16T13:07:16.508Z,26.87
2022-08-16T13:12:25.084Z,27.21
2022-08-16T13:17:29.813Z,28.93
2022-08-16T13:22:33.359Z,29.76
2022-08-16T13:28:01.680Z,29.37
2022-08-16T13:32:59.920Z,28.03
2022-08-16T13:38:03.680Z,27.27
2022-08-16T13:43:11.396Z,27.57
2022-08-16T13:48:21.838Z,29.28
2022-08-16T13:53:28.532Z,29.92
2022-08-16T13:58:37.143Z,28.79
2022-08-16T14:03:54.526Z,27.69
2022-08-16T14:08:59.323Z,27.02
2022-08-16T14:14:11.128Z,27.45
2022-08-16T14:19:19.032Z,29.17
2022-08-16T14:24:30.244Z,30.08
2022-08-16T14:29:35.124Z,30.07
2022-08-16T14:34:41.940Z,28.80
2022-08-16T14:39:45.438Z,28.01
2022-08-16T14:44:49.332Z,27.48
2022-08-16T14:49:53.034Z,27.91
2022-08-16T14:54:56.581Z,29.64
2022-08-16T15:00:06.206Z,29.46
2022-08-16T15:05:12.021Z,28.29
2022-08-16T15:10:24.097Z,27.62
2022-08-16T15:15:30.151Z,27.14
2022-08-16T15:20:35.677Z,26.81
2022-08-16T15:25:47.186Z,26.53
2022-08-16T15:31:14.988Z,27.33
2022-08-16T15:36:20.543Z,29.24
2022-08-16T15:41:38.812Z,29.08
2022-08-16T15:46:56.941Z,27.87
2022-08-16T15:52:03.114Z,27.20
2022-08-16T15:57:11.686Z,26.72
2022-08-16T16:02:18.514Z,26.32
2022-08-16T16:07:33.327Z,26.00
2022-08-16T16:12:50.931Z,25.74
2022-08-16T16:17:58.391Z,26.49
2022-08-16T16:23:10.330Z,28.48
2022-08-16T16:29:05.447Z,28.82
2022-08-16T16:33:44.597Z,27.58
2022-08-16T16:38:49.667Z,26.89
2022-08-16T16:43:55.194Z,26.45
2022-08-16T16:48:58.713Z,26.09
2022-08-16T16:54:02.739Z,25.78
2022-08-16T16:59:09.797Z,26.42
2022-08-16T17:04:19.571Z,28.37
2022-08-16T17:09:25.371Z,29.28
2022-08-16T17:14:32.792Z,28.58
2022-08-16T17:19:41.210Z,27.39
2022-08-16T17:24:50.849Z,26.67
2022-08-16T17:29:55.535Z,26.14
2022-08-16T17:35:03.018Z,25.68
2022-08-16T17:40:25.865Z,26.26
2022-08-16T17:45:40.276Z,28.17
2022-08-16T17:50:43.964Z,28.79
2022-08-16T17:55:50.786Z,27.65
2022-08-16T18:00:57.978Z,26.60
2022-08-16T18:06:01.003Z,25.92
2022-08-16T18:11:06.550Z,26.23
2022-08-16T18:16:12.654Z,27.97
2022-08-16T18:21:34.681Z,28.65
2022-08-16T18:26:38.787Z,27.46
2022-08-16T18:31:41.890Z,26.39
2022-08-16T18:36:44.887Z,25.69
2022-08-16T18:41:48.069Z,25.12
2022-08-16T18:46:51.288Z,25.55
2022-08-16T18:51:59.443Z,27.35
2022-08-16T18:57:07.247Z,28.19
2022-08-16T19:02:57.117Z,27.86
2022-08-16T19:07:34.083Z,26.39
2022-08-16T19:12:42.148Z,25.52
2022-08-16T19:17:46.161Z,24.88
2022-08-16T19:23:10.145Z,25.36
2022-08-16T19:28:48.869Z,27.31
2022-08-16T19:33:40.287Z,28.18
2022-08-16T19:38:43.338Z,27.85
2022-08-16T19:43:47.634Z,26.47
2022-08-16T19:48:50.662Z,25.58
2022-08-16T19:53:53.735Z,25.76
2022-08-16T19:59:18.184Z,27.44
2022-08-16T20:04:21.929Z,28.24
2022-08-16T20:09:25.456Z,27.92
2022-08-16T20:14:28.479Z,26.50
2022-08-16T20:19:40.080Z,25.61
2022-08-16T20:24:43.985Z,25.87
2022-08-16T20:29:48.592Z,27.54
2022-08-16T20:34:55.130Z,28.19
2022-08-16T20:40:28.002Z,27.05
2022-08-16T20:45:26.980Z,25.82
2022-08-16T20:50:30.829Z,25.04
2022-08-16T20:55:36.606Z,25.36
2022-08-16T21:00:40.587Z,27.09
2022-08-16T21:05:44.090Z,27.90
2022-08-16T21:10:47.123Z,28.20
2022-08-16T21:15:50.111Z,26.89
2022-08-16T21:20:53.799Z,25.76
2022-08-16T21:25:59.238Z,25.81
2022-08-16T21:31:02.909Z,27.41
2022-08-16T21:36:06.415Z,28.06
2022-08-16T21:41:12.949Z,26.98
2022-08-16T21:46:16.047Z,25.73
2022-08-16T21:51:19.072Z,24.93
2022-08-16T21:56:22.110Z,25.24
2022-08-16T22:01:26.656Z,26.94
2022-08-16T22:06:29.723Z,27.67
2022-08-16T22:11:33.587Z,26.69
2022-08-16T22:16:39.804Z,25.40
2022-08-16T22:21:42.901Z,24.57
2022-08-16T22:26:45.910Z,24.92
2022-08-16T22:31:48.957Z,26.65
2022-08-16T22:36:51.969Z,27.46
2022-08-16T22:41:55.236Z,27.72
2022-08-16T22:46:58.603Z,26.42
2022-08-16T22:52:07.475Z,25.26
2022-08-16T22:57:10.580Z,25.33
2022-08-16T23:02:15.091Z,26.94
2022-08-16T23:07:18.297Z,27.67
2022-08-16T23:12:26.236Z,27.53
2022-08-16T23:17:32.325Z,25.99
2022-08-16T23:23:19.968Z,24.97
2022-08-16T23:28:16.834Z,25.36
2022-08-16T23:33:21.919Z,26.86
2022-08-16T23:38:37.571Z,27.61
2022-08-16T23:43:43.648Z,27.00
2022-08-16T23:49:56.907Z,25.50
2022-08-16T23:54:11.767Z,24.53
2022-08-16T23:59:14.779Z,24.83
